createdAt,value
2023-05-21T00:01:08.802Z,14.70
2023-05-21T00:03:46.397Z,14.30
2023-05-21T00:06:15.688Z,16.50
2023-05-21T00:08:49.133Z,14.50
2023-05-21T00:11:22.688Z,14.40
2023-05-21T00:13:54.180Z,13.40
2023-05-21T00:16:25.949Z,16.30
2023-05-21T00:18:54.821Z,15.40
2023-05-21T00:21:26.420Z,13.50
2023-05-21T00:23:56.621Z,17.30
2023-05-21T00:26:25.281Z,11.70
2023-05-21T00:28:55.074Z,12.70
2023-05-21T00:31:24.592Z,13.20
2023-05-21T00:33:53.220Z,13.40
2023-05-21T00:36:24.005Z,11.90
2023-05-21T00:38:53.864Z,11.30
2023-05-21T00:41:25.555Z,14.90
2023-05-21T00:43:54.264Z,12.70
2023-05-21T00:46:23.368Z,12.30
2023-05-21T00:48:52.980Z,15.60
2023-05-21T00:51:22.010Z,16.80
2023-05-21T00:53:53.272Z,16.70
2023-05-21T00:56:24.064Z,13.30
2023-05-21T00:58:57.492Z,12.90
2023-05-21T01:01:29.282Z,14.90
2023-05-21T01:03:59.275Z,20.00
2023-05-21T01:06:34.976Z,16.90
2023-05-21T01:09:07.709Z,17.00
2023-05-21T01:16:42.623Z,17.70
2023-05-21T01:19:23.814Z,16.60
2023-05-21T01:21:57.763Z,21.50
2023-05-21T01:24:26.685Z,18.00
2023-05-21T01:26:55.277Z,18.80
2023-05-21T01:29:23.946Z,16.40
2023-05-21T01:32:10.072Z,28.60
2023-05-21T01:35:02.638Z,18.80
2023-05-21T01:37:34.583Z,15.40
2023-05-21T01:40:14.984Z,14.20
2023-05-21T01:42:45.047Z,20.50
2023-05-21T01:45:16.349Z,16.70
2023-05-21T01:47:49.135Z,17.60
2023-05-21T01:50:19.327Z,15.60
2023-05-21T01:53:01.340Z,13.50
2023-05-21T01:55:31.571Z,12.50
2023-05-21T01:58:02.571Z,14.20
2023-05-21T02:00:32.933Z,14.20
2023-05-21T02:03:02.302Z,12.20
2023-05-21T02:05:31.064Z,16.50
2023-05-21T02:08:00.298Z,11.80
2023-05-21T02:10:29.064Z,13.40
2023-05-21T02:12:57.746Z,12.00
2023-05-21T02:15:26.478Z,16.30
2023-05-21T02:17:55.937Z,15.90
2023-05-21T02:20:24.564Z,13.20
2023-05-21T02:22:53.192Z,15.40
2023-05-21T02:25:21.825Z,11.40
2023-05-21T02:27:53.902Z,13.80
2023-05-21T02:30:22.713Z,10.20
2023-05-21T02:32:51.400Z,11.90
2023-05-21T02:35:22.801Z,11.90
2023-05-21T02:37:51.446Z,14.80
2023-05-21T02:40:20.502Z,12.80
2023-05-21T02:42:51.883Z,12.80
2023-05-21T02:45:20.716Z,14.50
2023-05-21T02:47:49.570Z,14.40
2023-05-21T02:50:20.302Z,12.40
2023-05-21T02:52:56.406Z,14.60
2023-05-21T02:55:25.066Z,11.50
2023-05-21T02:57:53.633Z,13.80
2023-05-21T03:00:25.617Z,12.40
2023-05-21T03:02:54.429Z,18.00
2023-05-21T03:05:23.446Z,12.90
2023-05-21T03:07:55.170Z,14.20
2023-05-21T03:10:23.826Z,12.60
2023-05-21T03:12:55.390Z,11.50
2023-05-21T03:15:27.106Z,12.90
2023-05-21T03:17:59.002Z,14.30
2023-05-21T03:20:29.181Z,12.40
2023-05-21T03:22:57.833Z,11.80
2023-05-21T03:25:26.535Z,14.00
2023-05-21T03:27:57.514Z,12.20
2023-05-21T03:30:55.023Z,11.60
2023-05-21T03:33:33.346Z,11.70
2023-05-21T03:36:03.147Z,14.10
2023-05-21T03:38:35.957Z,12.70
2023-05-21T03:41:07.292Z,11.20
2023-05-21T03:43:35.928Z,12.80
2023-05-21T03:46:09.562Z,12.00
2023-05-21T03:49:00.857Z,10.80
2023-05-21T03:51:31.982Z,10.80
2023-05-21T03:54:01.725Z,12.70
2023-05-21T03:56:33.818Z,16.30
2023-05-21T03:59:02.527Z,13.50
2023-05-21T04:01:34.267Z,10.50
2023-05-21T04:04:03.687Z,12.20
2023-05-21T04:06:32.502Z,12.50
2023-05-21T04:09:01.525Z,13.40
2023-05-21T04:11:30.203Z,11.40
2023-05-21T04:13:58.857Z,12.60
2023-05-21T04:16:27.680Z,11.70
2023-05-21T04:18:56.467Z,11.50
2023-05-21T04:21:29.749Z,13.90
2023-05-21T04:24:01.688Z,12.80
2023-05-21T04:26:45.417Z,11.00
2023-05-21T04:29:14.924Z,12.00
2023-05-21T04:31:44.053Z,13.40
2023-05-21T04:34:18.158Z,13.50
2023-05-21T04:36:47.010Z,10.60
2023-05-21T04:39:16.997Z,10.00
2023-05-21T04:41:45.656Z,10.90
2023-05-21T04:44:15.302Z,10.30
2023-05-21T04:46:46.342Z,12.20
2023-05-21T04:49:15.574Z,12.10
2023-05-21T04:51:45.255Z,12.20
2023-05-21T04:54:13.867Z,12.20
2023-05-21T04:56:42.559Z,9.50
2023-05-21T04:59:11.193Z,11.10
2023-05-21T05:01:40.026Z,14.50
2023-05-21T05:04:08.610Z,10.70
2023-05-21T05:06:37.880Z,10.00
2023-05-21T05:09:07.019Z,10.60
2023-05-21T05:11:35.947Z,12.00
2023-05-21T05:14:05.309Z,12.40
2023-05-21T05:16:35.824Z,12.40
2023-05-21T05:19:04.547Z,11.30
2023-05-21T05:21:33.393Z,13.60
2023-05-21T05:24:02.243Z,11.40
2023-05-21T05:26:31.396Z,12.40
2023-05-21T05:29:00.018Z,12.10
2023-05-21T05:31:28.627Z,10.80
2023-05-21T05:33:57.902Z,14.20
2023-05-21T05:36:27.356Z,11.40
2023-05-21T05:38:56.750Z,14.00
2023-05-21T05:41:25.316Z,10.90
2023-05-21T05:43:53.903Z,12.40
2023-05-21T05:46:23.493Z,10.10
2023-05-21T05:48:52.697Z,9.50
2023-05-21T05:51:21.393Z,10.20
2023-05-21T05:53:51.359Z,9.30
2023-05-21T05:56:21.904Z,8.50
2023-05-21T05:58:50.896Z,11.50
2023-05-21T06:01:22.158Z,10.40
2023-05-21T06:03:54.479Z,10.00
2023-05-21T06:06:23.114Z,8.90
2023-05-21T06:08:51.783Z,6.90
2023-05-21T06:11:23.202Z,8.70
2023-05-21T06:13:54.640Z,7.50
2023-05-21T06:16:26.717Z,8.20
2023-05-21T06:18:59.973Z,8.20
2023-05-21T06:21:28.766Z,6.80
2023-05-21T06:23:57.583Z,6.70
2023-05-21T06:26:26.525Z,7.10
2023-05-21T06:28:55.194Z,9.00
2023-05-21T06:31:24.919Z,5.90
2023-05-21T06:33:55.981Z,6.20
2023-05-21T06:36:26.957Z,6.20
2023-05-21T06:38:58.655Z,6.30
2023-05-21T06:41:28.809Z,6.60
2023-05-21T06:44:00.358Z,7.10
2023-05-21T06:46:44.470Z,6.00
2023-05-21T06:49:17.260Z,7.30
2023-05-21T06:51:45.883Z,10.20
2023-05-21T06:54:14.763Z,9.90
2023-05-21T06:56:43.472Z,8.00
2023-05-21T06:59:12.239Z,8.70
2023-05-21T07:01:42.883Z,9.80
2023-05-21T07:04:11.885Z,8.60
2023-05-21T07:06:43.336Z,8.70
2023-05-21T07:09:12.373Z,9.30
2023-05-21T07:11:41.868Z,13.20
2023-05-21T07:14:10.724Z,8.10
2023-05-21T07:16:39.723Z,9.30
2023-05-21T07:19:09.611Z,8.30
2023-05-21T07:21:38.977Z,9.00
2023-05-21T07:24:08.423Z,7.70
2023-05-21T07:26:39.606Z,6.50
2023-05-21T07:29:08.240Z,6.30
2023-05-21T07:31:37.173Z,7.40
2023-05-21T07:34:05.830Z,8.70
2023-05-21T07:36:34.570Z,8.90
2023-05-21T07:39:03.845Z,6.60
2023-05-21T07:41:33.023Z,8.00
2023-05-21T07:44:02.550Z,6.90
2023-05-21T07:46:33.156Z,7.40
2023-05-21T07:49:01.791Z,7.80
2023-05-21T07:51:31.326Z,6.50
2023-05-21T07:54:00.143Z,6.60
2023-05-21T07:56:33.324Z,9.30
2023-05-21T07:59:01.915Z,6.20
2023-05-21T08:01:31.188Z,8.30
2023-05-21T08:04:02.285Z,9.70
2023-05-21T08:06:34.204Z,8.10
2023-05-21T08:09:02.729Z,6.80
2023-05-21T08:11:31.859Z,9.00
2023-05-21T08:14:03.471Z,6.50
2023-05-21T08:16:33.132Z,7.10
2023-05-21T08:19:01.892Z,8.80
2023-05-21T08:21:30.994Z,8.80
2023-05-21T08:24:00.698Z,8.40
2023-05-21T08:26:29.561Z,13.20
2023-05-21T08:28:58.694Z,12.70
2023-05-21T08:31:27.672Z,10.80
2023-05-21T08:33:56.852Z,9.70
2023-05-21T08:36:36.364Z,9.00
2023-05-21T08:39:09.621Z,7.50
2023-05-21T08:44:13.213Z,9.20
2023-05-21T08:46:45.674Z,16.80
2023-05-21T08:51:46.018Z,12.30
2023-05-21T08:54:14.806Z,7.70
2023-05-21T08:56:49.832Z,10.00
2023-05-21T08:59:19.611Z,9.00
2023-05-21T09:01:50.280Z,6.50
2023-05-21T09:04:29.783Z,6.70
2023-05-21T09:06:59.525Z,10.20
2023-05-21T09:09:57.555Z,6.40
2023-05-21T09:12:27.922Z,6.20
2023-05-21T09:14:58.811Z,10.00
2023-05-21T09:17:32.298Z,6.00
2023-05-21T09:20:16.593Z,7.30
2023-05-21T09:22:55.921Z,8.10
2023-05-21T09:25:28.396Z,10.60
2023-05-21T09:27:59.717Z,8.50
2023-05-21T09:30:30.766Z,6.80
2023-05-21T09:33:01.913Z,6.20
2023-05-21T09:35:30.642Z,8.70
2023-05-21T09:37:59.207Z,7.40
2023-05-21T09:40:29.030Z,6.60
2023-05-21T09:42:57.848Z,8.70
2023-05-21T09:45:28.924Z,5.60
2023-05-21T09:47:58.763Z,8.60
2023-05-21T09:50:28.138Z,7.80
2023-05-21T09:52:56.774Z,8.90
2023-05-21T09:55:27.320Z,6.90
2023-05-21T09:57:55.872Z,8.60
2023-05-21T10:00:29.227Z,7.70
2023-05-21T10:03:02.069Z,8.50
2023-05-21T10:05:31.478Z,8.10
2023-05-21T10:08:04.765Z,7.60
2023-05-21T10:10:34.112Z,5.70
2023-05-21T10:13:08.985Z,5.60
2023-05-21T10:15:52.044Z,7.50
2023-05-21T10:18:22.590Z,5.90
2023-05-21T10:20:52.440Z,8.50
2023-05-21T10:23:21.197Z,9.00
2023-05-21T10:25:50.624Z,8.40
2023-05-21T10:28:20.744Z,6.30
2023-05-21T10:30:49.776Z,6.80
2023-05-21T10:33:20.455Z,7.20
2023-05-21T10:35:53.142Z,5.60
2023-05-21T10:38:22.034Z,5.50
2023-05-21T10:40:51.105Z,8.90
2023-05-21T10:43:45.446Z,6.50
2023-05-21T10:46:33.925Z,9.00
2023-05-21T10:49:47.818Z,6.20
2023-05-21T10:52:48.864Z,6.50
2023-05-21T10:55:30.497Z,7.40
2023-05-21T10:58:14.873Z,8.70
2023-05-21T11:00:44.208Z,6.50
2023-05-21T11:03:14.367Z,5.90
2023-05-21T11:05:53.213Z,7.10
2023-05-21T11:08:26.042Z,6.60
2023-05-21T11:10:58.307Z,5.20
2023-05-21T11:15:59.545Z,8.30
2023-05-21T11:18:34.155Z,8.50
2023-05-21T11:21:06.641Z,5.70
2023-05-21T11:23:58.577Z,6.00
2023-05-21T11:26:55.595Z,6.60
2023-05-21T11:29:33.910Z,6.00
2023-05-21T11:32:06.060Z,8.10
2023-05-21T11:34:43.044Z,9.60
2023-05-21T11:37:17.838Z,5.70
2023-05-21T11:39:47.414Z,7.20
2023-05-21T11:42:30.648Z,11.50
2023-05-21T11:45:00.557Z,7.60
2023-05-21T11:47:30.315Z,6.30
2023-05-21T11:50:01.399Z,6.70
2023-05-21T11:52:32.069Z,6.40
2023-05-21T11:55:00.708Z,7.20
2023-05-21T11:57:33.028Z,6.20
2023-05-21T12:02:50.605Z,9.10
2023-05-21T12:05:19.710Z,6.90
2023-05-21T12:07:50.481Z,6.70
2023-05-21T12:10:24.238Z,7.90
2023-05-21T12:12:56.836Z,8.70
2023-05-21T12:15:27.912Z,6.10
2023-05-21T12:17:57.307Z,10.40
2023-05-21T12:20:29.310Z,6.10
2023-05-21T12:22:59.312Z,6.50
2023-05-21T12:25:28.876Z,6.40
2023-05-21T12:27:59.108Z,5.40
2023-05-21T12:30:29.203Z,7.50
2023-05-21T12:33:04.988Z,6.10
2023-05-21T12:35:33.660Z,6.10
2023-05-21T12:38:03.495Z,5.50
2023-05-21T12:40:37.743Z,11.10
2023-05-21T12:43:07.781Z,6.90
2023-05-21T12:45:39.672Z,6.30
2023-05-21T12:48:09.186Z,6.70
2023-05-21T12:50:42.503Z,5.90
2023-05-21T12:53:13.520Z,7.70
2023-05-21T12:55:42.272Z,8.00
2023-05-21T12:58:14.434Z,5.90
2023-05-21T13:00:44.336Z,7.90
2023-05-21T13:03:15.248Z,7.40
2023-05-21T13:05:45.107Z,5.50
2023-05-21T13:08:15.855Z,7.20
2023-05-21T13:10:44.663Z,6.00
2023-05-21T13:13:13.324Z,6.30
2023-05-21T13:15:42.133Z,6.50
2023-05-21T13:18:12.792Z,9.10
2023-05-21T13:20:41.523Z,5.70
2023-05-21T13:23:11.703Z,6.10
2023-05-21T13:25:40.856Z,6.70
2023-05-21T13:28:10.751Z,6.40
2023-05-21T13:30:39.613Z,6.70
2023-05-21T13:33:08.782Z,5.50
2023-05-21T13:35:38.341Z,5.60
2023-05-21T13:38:07.046Z,10.60
2023-05-21T13:40:39.165Z,8.50
2023-05-21T13:43:08.193Z,7.40
2023-05-21T13:45:37.014Z,6.00
2023-05-21T13:48:06.944Z,5.80
2023-05-21T13:50:35.817Z,7.70
2023-05-21T13:53:05.010Z,6.90
2023-05-21T13:55:36.844Z,7.00
2023-05-21T13:58:10.237Z,8.70
2023-05-21T14:00:41.428Z,6.00
2023-05-21T14:03:11.128Z,8.60
2023-05-21T14:05:39.970Z,7.40
2023-05-21T14:08:08.773Z,6.50
2023-05-21T14:10:37.988Z,5.70
2023-05-21T14:13:18.419Z,7.10
2023-05-21T14:15:49.258Z,6.70
2023-05-21T14:18:18.078Z,6.00
2023-05-21T14:20:46.783Z,6.90
2023-05-21T14:23:18.489Z,6.60
2023-05-21T14:25:47.184Z,7.30
2023-05-21T14:28:16.308Z,7.30
2023-05-21T14:30:45.061Z,4.90
2023-05-21T14:33:17.208Z,5.50
2023-05-21T14:38:19.713Z,6.70
2023-05-21T14:40:48.503Z,5.20
2023-05-21T14:43:17.531Z,4.70
2023-05-21T14:45:46.342Z,5.70
2023-05-21T14:48:15.181Z,5.90
2023-05-21T14:50:43.856Z,6.40
2023-05-21T14:53:13.063Z,7.90
2023-05-21T14:55:42.003Z,7.20
2023-05-21T14:58:10.947Z,5.30
2023-05-21T15:00:40.135Z,6.10
2023-05-21T15:03:08.857Z,6.90
2023-05-21T15:05:38.032Z,12.20
2023-05-21T15:08:08.497Z,8.20
2023-05-21T15:10:37.243Z,7.50
2023-05-21T15:13:05.923Z,8.90
2023-05-21T15:15:36.125Z,8.40
2023-05-21T15:18:05.166Z,6.60
2023-05-21T15:20:34.034Z,9.40
2023-05-21T15:25:34.381Z,6.60
2023-05-21T15:28:03.630Z,6.70
2023-05-21T15:30:32.406Z,6.50
2023-05-21T15:33:01.704Z,8.10
2023-05-21T15:35:30.613Z,7.80
2023-05-21T15:37:59.493Z,5.90
2023-05-21T15:40:28.345Z,8.50
2023-05-21T15:42:57.420Z,9.20
2023-05-21T15:45:26.209Z,5.90
2023-05-21T15:47:55.094Z,7.20
2023-05-21T15:50:23.949Z,9.10
2023-05-21T15:52:53.460Z,6.40
2023-05-21T15:55:22.786Z,8.60
2023-05-21T15:57:51.500Z,10.80
2023-05-21T16:00:20.392Z,10.70
2023-05-21T16:02:49.997Z,8.50
2023-05-21T16:05:19.187Z,7.10
2023-05-21T16:07:47.920Z,7.70
2023-05-21T16:10:16.853Z,10.20
2023-05-21T16:12:45.521Z,8.60
2023-05-21T16:15:14.195Z,8.50
2023-05-21T16:17:43.039Z,7.50
2023-05-21T16:20:12.743Z,8.30
2023-05-21T16:22:42.137Z,12.60
2023-05-21T16:25:10.821Z,11.60
2023-05-21T16:27:39.607Z,13.70
2023-05-21T16:30:09.143Z,14.40
2023-05-21T16:32:39.824Z,10.30
2023-05-21T16:35:08.937Z,12.20
2023-05-21T16:37:37.560Z,9.60
2023-05-21T16:40:07.259Z,9.70
2023-05-21T16:42:35.738Z,11.00
2023-05-21T16:45:04.569Z,10.10
2023-05-21T16:47:33.718Z,10.70
2023-05-21T16:50:02.315Z,12.90
2023-05-21T16:52:30.904Z,10.20
2023-05-21T16:54:59.966Z,16.30
2023-05-21T16:57:28.427Z,14.40
2023-05-21T16:59:56.996Z,12.30
2023-05-21T17:02:25.808Z,17.50
2023-05-21T17:04:54.401Z,14.10
2023-05-21T17:07:23.082Z,15.70
2023-05-21T17:09:51.593Z,19.00
2023-05-21T17:12:20.425Z,11.80
2023-05-21T17:14:48.971Z,11.90
2023-05-21T17:17:18.882Z,15.50
2023-05-21T17:19:47.503Z,12.30
2023-05-21T17:22:16.506Z,13.30
2023-05-21T17:24:45.226Z,12.40
2023-05-21T17:27:14.046Z,12.90
2023-05-21T17:29:42.834Z,14.70
2023-05-21T17:32:12.521Z,11.50
2023-05-21T17:34:41.128Z,10.50
2023-05-21T17:37:09.708Z,9.10
2023-05-21T17:39:38.536Z,10.90
2023-05-21T17:42:07.507Z,11.20
2023-05-21T17:44:36.059Z,11.10
2023-05-21T17:47:04.955Z,9.90
2023-05-21T17:49:33.809Z,8.90
2023-05-21T17:52:04.696Z,10.70
2023-05-21T17:54:34.338Z,9.60
2023-05-21T17:57:03.134Z,8.40
2023-05-21T17:59:31.904Z,9.00
2023-05-21T18:02:04.105Z,9.20
2023-05-21T18:04:32.885Z,10.20
2023-05-21T18:07:01.901Z,7.70
2023-05-21T18:09:33.774Z,10.00
2023-05-21T18:12:05.986Z,9.90
2023-05-21T18:14:34.775Z,9.00
2023-05-21T18:17:04.254Z,10.30
2023-05-21T18:19:34.078Z,12.50
2023-05-21T18:22:05.595Z,11.10
2023-05-21T18:24:34.407Z,11.10
2023-05-21T18:27:04.064Z,10.80
2023-05-21T18:29:33.018Z,11.90
2023-05-21T18:32:02.618Z,11.10
2023-05-21T18:34:31.415Z,11.60
2023-05-21T18:37:00.802Z,15.50
2023-05-21T18:39:29.372Z,10.40
2023-05-21T18:42:12.177Z,9.70
2023-05-21T18:44:41.418Z,10.30
2023-05-21T18:47:10.013Z,8.90
2023-05-21T18:49:39.055Z,9.90
2023-05-21T18:52:08.009Z,9.00
2023-05-21T18:54:36.528Z,9.60
2023-05-21T18:57:05.272Z,14.70
2023-05-21T18:59:33.922Z,9.00
2023-05-21T19:02:03.652Z,10.30
2023-05-21T19:04:32.316Z,10.80
2023-05-21T19:07:03.076Z,10.30
2023-05-21T19:09:31.692Z,12.20
2023-05-21T19:12:01.232Z,10.30
2023-05-21T19:14:29.832Z,11.60
2023-05-21T19:16:58.327Z,12.60
2023-05-21T19:19:27.015Z,10.10
2023-05-21T19:21:55.669Z,10.00
2023-05-21T19:24:24.252Z,12.10
2023-05-21T19:26:52.775Z,14.00
2023-05-21T19:29:21.907Z,10.80
2023-05-21T19:31:50.467Z,10.00
2023-05-21T19:34:19.187Z,10.90
2023-05-21T19:36:53.312Z,14.80
2023-05-21T19:39:22.552Z,11.00
2023-05-21T19:41:53.066Z,12.30
2023-05-21T19:44:21.638Z,12.90
2023-05-21T19:46:50.275Z,13.50
2023-05-21T19:49:20.204Z,14.20
2023-05-21T19:51:49.599Z,12.10
2023-05-21T19:54:18.878Z,12.50
2023-05-21T19:56:47.504Z,12.50
2023-05-21T19:59:19.004Z,15.30
2023-05-21T20:01:47.456Z,13.20
2023-05-21T20:04:16.494Z,11.10
2023-05-21T20:06:45.285Z,10.90
2023-05-21T20:09:14.012Z,13.90
2023-05-21T20:11:43.211Z,14.10
2023-05-21T20:14:11.757Z,15.30
2023-05-21T20:16:42.546Z,15.10
2023-05-21T20:19:11.386Z,15.10
2023-05-21T20:21:39.952Z,13.50
2023-05-21T20:24:08.899Z,11.70
2023-05-21T20:26:37.460Z,14.00
2023-05-21T20:29:07.152Z,12.40
2023-05-21T20:31:36.265Z,15.00
2023-05-21T20:37:56.087Z,15.30
2023-05-21T20:40:23.344Z,14.80
2023-05-21T20:42:52.908Z,17.00
2023-05-21T20:45:21.519Z,12.70
2023-05-21T20:47:49.269Z,15.10
2023-05-21T20:50:25.350Z,15.20
2023-05-21T20:52:52.478Z,15.50
2023-05-21T20:55:22.101Z,15.60
2023-05-21T20:57:49.368Z,14.50
2023-05-21T21:00:16.764Z,17.10
2023-05-21T21:02:45.323Z,16.80
2023-05-21T21:05:12.560Z,16.90
2023-05-21T21:07:39.850Z,16.20
2023-05-21T21:10:07.588Z,14.40
2023-05-21T21:12:34.760Z,12.50
2023-05-21T21:15:02.041Z,19.60
2023-05-21T21:17:29.193Z,14.60
2023-05-21T21:19:56.439Z,12.00
2023-05-21T21:22:23.671Z,15.30
2023-05-21T21:24:50.858Z,14.60
2023-05-21T21:27:20.513Z,14.80
2023-05-21T21:29:47.664Z,17.40
2023-05-21T21:32:14.959Z,15.70
2023-05-21T21:34:45.321Z,13.10
2023-05-21T21:37:16.323Z,16.20
2023-05-21T21:39:43.588Z,14.00
2023-05-21T21:42:10.750Z,10.30
2023-05-21T21:44:38.880Z,11.30
2023-05-21T21:47:06.199Z,11.10
2023-05-21T21:49:33.921Z,13.10
2023-05-21T21:52:01.350Z,11.00
2023-05-21T21:54:28.484Z,12.20
2023-05-21T21:56:55.564Z,16.00
2023-05-21T21:59:22.767Z,13.20
2023-05-21T22:01:50.038Z,10.70
2023-05-21T22:04:17.320Z,14.00
2023-05-21T22:06:47.870Z,16.50
2023-05-21T22:09:16.557Z,13.40
2023-05-21T22:11:44.045Z,16.30
2023-05-21T22:14:11.244Z,12.10
2023-05-21T22:16:38.521Z,11.40
2023-05-21T22:19:05.805Z,14.60
2023-05-21T22:21:33.522Z,13.70
2023-05-21T22:24:00.661Z,11.70
2023-05-21T22:26:27.818Z,11.30
2023-05-21T22:28:59.642Z,12.30
2023-05-21T22:31:26.914Z,11.30
2023-05-21T22:33:54.200Z,14.10
2023-05-21T22:36:22.143Z,13.70
2023-05-21T22:38:49.377Z,10.70
2023-05-21T22:41:16.814Z,12.30
2023-05-21T22:43:44.067Z,13.80
2023-05-21T22:46:11.332Z,15.10
2023-05-21T22:48:41.392Z,13.80
2023-05-21T22:51:09.189Z,13.80
2023-05-21T22:53:36.480Z,18.40
2023-05-21T22:56:03.774Z,14.30
2023-05-21T22:58:33.243Z,13.80
2023-05-21T23:01:00.559Z,11.50
2023-05-21T23:03:27.904Z,15.50
2023-05-21T23:05:55.187Z,16.60
2023-05-21T23:08:22.417Z,13.80
2023-05-21T23:10:49.834Z,10.40
2023-05-21T23:13:19.321Z,13.60
2023-05-21T23:15:47.902Z,16.10
2023-05-21T23:18:15.206Z,14.20
2023-05-21T23:20:43.281Z,13.50
2023-05-21T23:23:10.861Z,11.50
2023-05-21T23:25:40.607Z,15.20
2023-05-21T23:28:07.762Z,14.40
2023-05-21T23:30:35.045Z,14.90
2023-05-21T23:33:02.521Z,13.40
2023-05-21T23:35:29.979Z,12.90
2023-05-21T23:37:57.146Z,11.50
2023-05-21T23:40:24.399Z,9.90
2023-05-21T23:42:51.783Z,17.20
2023-05-21T23:45:18.996Z,11.30
2023-05-21T23:47:46.252Z,12.20
2023-05-21T23:50:13.533Z,10.90
2023-05-21T23:52:40.986Z,9.40
2023-05-21T23:55:11.100Z,11.70
2023-05-21T23:57:38.275Z,9.90
